createdAt,value
2019-04-13T00:01:37.527Z,10.37
2019-04-13T00:04:04.442Z,17.27
2019-04-13T00:06:38.795Z,12.20
2019-04-13T00:09:07.699Z,11.00
2019-04-13T00:11:54.530Z,14.30
2019-04-13T00:14:21.559Z,10.87
2019-04-13T00:16:48.314Z,15.80
2019-04-13T00:19:14.925Z,10.37
2019-04-13T00:21:42.209Z,10.43
2019-04-13T00:24:09.351Z,12.27
2019-04-13T00:26:36.709Z,10.30
2019-04-13T00:29:04.936Z,11.57
2019-04-13T00:31:33.297Z,10.87
2019-04-13T00:34:00.543Z,7.93
2019-04-13T00:36:27.411Z,9.93
2019-04-13T00:38:55.090Z,8.67
2019-04-13T00:41:21.738Z,8.00
2019-04-13T00:43:48.326Z,7.63
2019-04-13T00:46:16.608Z,6.63
2019-04-13T00:48:43.206Z,7.07
2019-04-13T00:51:10.103Z,5.80
2019-04-13T00:53:37.484Z,6.50
2019-04-13T00:56:04.073Z,5.90
2019-04-13T00:58:30.762Z,6.47
2019-04-13T01:00:58.744Z,6.83
2019-04-13T01:03:25.857Z,5.80
2019-04-13T01:05:53.489Z,7.20
2019-04-13T01:08:20.255Z,5.83
2019-04-13T01:10:46.959Z,5.80
2019-04-13T01:13:13.649Z,5.60
2019-04-13T01:15:41.107Z,5.50
2019-04-13T01:18:07.680Z,6.30
2019-04-13T01:20:34.359Z,5.97
2019-04-13T01:23:00.940Z,6.80
2019-04-13T01:25:27.626Z,6.80
2019-04-13T01:27:54.255Z,4.80
2019-04-13T01:30:21.077Z,4.27
2019-04-13T01:32:49.102Z,5.37
2019-04-13T01:35:15.695Z,4.00
2019-04-13T01:37:43.432Z,5.67
2019-04-13T01:40:10.932Z,5.87
2019-04-13T01:42:37.501Z,3.90
2019-04-13T01:45:05.497Z,5.70
2019-04-13T01:47:32.115Z,4.53
2019-04-13T01:49:58.830Z,6.27
2019-04-13T01:52:25.562Z,7.13
2019-04-13T01:54:53.019Z,6.10
2019-04-13T01:57:19.998Z,7.93
2019-04-13T01:59:47.032Z,6.13
2019-04-13T02:02:31.237Z,6.50
2019-04-13T02:05:18.293Z,5.83
2019-04-13T02:07:51.857Z,6.20
2019-04-13T02:10:24.855Z,4.87
2019-04-13T02:12:52.506Z,4.00
2019-04-13T02:15:19.086Z,3.57
2019-04-13T02:17:45.950Z,4.60
2019-04-13T02:20:14.281Z,4.07
2019-04-13T02:22:40.909Z,2.97
2019-04-13T02:25:07.756Z,4.13
2019-04-13T02:27:35.609Z,3.03
2019-04-13T02:30:04.458Z,3.57
2019-04-13T02:32:31.221Z,2.97
2019-04-13T02:34:57.885Z,4.47
2019-04-13T02:37:26.200Z,3.20
2019-04-13T02:39:52.896Z,3.20
2019-04-13T02:42:20.067Z,3.33
2019-04-13T02:44:46.803Z,3.37
2019-04-13T02:47:14.430Z,4.93
2019-04-13T02:49:41.653Z,3.33
2019-04-13T02:52:08.870Z,3.63
2019-04-13T02:54:35.667Z,4.20
2019-04-13T02:57:02.352Z,4.43
2019-04-13T02:59:29.386Z,4.77
2019-04-13T03:01:58.162Z,3.73
2019-04-13T03:04:25.551Z,6.57
2019-04-13T03:06:53.169Z,5.20
2019-04-13T03:09:19.839Z,6.03
2019-04-13T03:11:46.785Z,6.67
2019-04-13T03:14:13.614Z,6.63
2019-04-13T03:17:14.871Z,7.23
2019-04-13T03:19:45.700Z,6.00
2019-04-13T03:22:12.294Z,4.63
2019-04-13T03:24:40.133Z,5.73
2019-04-13T03:27:06.776Z,5.07
2019-04-13T03:29:33.456Z,5.33
2019-04-13T03:32:00.393Z,5.27
2019-04-13T03:34:27.920Z,4.70
2019-04-13T03:36:54.629Z,4.77
2019-04-13T03:39:21.210Z,5.37
2019-04-13T03:41:48.005Z,4.63
2019-04-13T03:44:14.580Z,4.30
2019-04-13T03:46:41.356Z,4.53
2019-04-13T03:49:08.412Z,3.70
2019-04-13T03:51:35.943Z,6.67
2019-04-13T03:54:02.968Z,6.10
2019-04-13T03:56:29.953Z,7.03
2019-04-13T03:58:56.559Z,4.10
2019-04-13T04:01:23.258Z,4.37
2019-04-13T04:03:49.931Z,5.57
2019-04-13T04:06:16.947Z,6.20
2019-04-13T04:08:43.578Z,6.10
2019-04-13T04:11:10.476Z,5.83
2019-04-13T04:13:37.097Z,5.47
2019-04-13T04:16:04.220Z,5.30
2019-04-13T04:18:32.560Z,6.17
2019-04-13T04:20:59.633Z,5.47
2019-04-13T04:23:26.427Z,6.57
2019-04-13T04:25:53.079Z,6.47
2019-04-13T04:28:20.895Z,6.83
2019-04-13T04:30:47.887Z,6.33
2019-04-13T04:33:14.977Z,6.87
2019-04-13T04:35:42.060Z,8.53
2019-04-13T04:38:09.364Z,6.80
2019-04-13T04:40:35.947Z,8.30
2019-04-13T04:43:02.839Z,7.63
2019-04-13T04:45:29.589Z,8.10
2019-04-13T04:47:56.485Z,6.07
2019-04-13T04:50:23.219Z,6.97
2019-04-13T04:52:50.542Z,8.37
2019-04-13T04:55:17.278Z,7.47
2019-04-13T04:57:44.603Z,7.50
2019-04-13T05:00:11.429Z,6.77
2019-04-13T05:02:38.174Z,6.73
2019-04-13T05:05:06.730Z,7.47
2019-04-13T05:07:35.936Z,10.97
2019-04-13T05:10:03.968Z,8.70
2019-04-13T05:12:30.793Z,7.23
2019-04-13T05:14:57.838Z,9.13
2019-04-13T05:17:24.533Z,8.60
2019-04-13T05:19:52.376Z,9.03
2019-04-13T05:22:26.036Z,6.50
2019-04-13T05:24:47.945Z,7.73
2019-04-13T05:27:15.576Z,9.90
2019-04-13T05:29:43.416Z,9.47
2019-04-13T05:32:10.669Z,9.50
2019-04-13T05:34:37.530Z,8.27
2019-04-13T05:37:04.143Z,8.30
2019-04-13T05:39:31.026Z,7.07
2019-04-13T05:41:59.308Z,5.80
2019-04-13T05:44:25.981Z,6.13
2019-04-13T05:46:53.959Z,8.03
2019-04-13T05:49:20.578Z,5.73
2019-04-13T05:51:48.019Z,5.93
2019-04-13T05:54:14.635Z,6.00
2019-04-13T05:56:41.371Z,5.67
2019-04-13T05:59:08.606Z,5.40
2019-04-13T06:01:35.491Z,4.27
2019-04-13T06:04:02.277Z,6.20
2019-04-13T06:06:29.555Z,5.30
2019-04-13T06:08:56.211Z,6.20
2019-04-13T06:11:23.162Z,5.63
2019-04-13T06:13:50.434Z,4.70
2019-04-13T06:16:17.069Z,5.17
2019-04-13T06:18:43.685Z,6.07
2019-04-13T06:21:10.778Z,6.53
2019-04-13T06:23:37.815Z,6.27
2019-04-13T06:26:04.738Z,6.53
2019-04-13T06:28:31.553Z,6.77
2019-04-13T06:31:17.247Z,5.13
2019-04-13T06:33:50.951Z,6.37
2019-04-13T06:36:18.690Z,5.70
2019-04-13T06:38:45.606Z,7.97
2019-04-13T06:41:12.565Z,8.97
2019-04-13T06:43:39.728Z,8.60
2019-04-13T06:46:06.783Z,6.90
2019-04-13T06:48:34.599Z,7.33
2019-04-13T06:51:02.576Z,7.30
2019-04-13T06:53:29.871Z,7.47
2019-04-13T06:55:56.741Z,6.50
2019-04-13T06:58:27.012Z,9.10
2019-04-13T07:00:57.250Z,7.43
2019-04-13T07:03:24.452Z,8.10
2019-04-13T07:05:51.346Z,6.20
2019-04-13T07:08:38.397Z,6.47
2019-04-13T07:11:30.666Z,5.80
2019-04-13T07:14:00.213Z,5.53
2019-04-13T07:16:43.053Z,5.77
2019-04-13T07:19:07.933Z,6.20
2019-04-13T07:21:34.513Z,6.17
2019-04-13T07:24:01.178Z,5.77
2019-04-13T07:26:29.124Z,7.23
2019-04-13T07:28:55.713Z,9.47
2019-04-13T07:31:23.645Z,6.00
2019-04-13T07:33:51.323Z,6.30
2019-04-13T07:36:18.204Z,5.77
2019-04-13T07:38:47.582Z,5.70
2019-04-13T07:41:14.805Z,4.77
2019-04-13T07:43:45.691Z,5.33
2019-04-13T07:46:32.484Z,4.93
2019-04-13T07:49:13.783Z,7.90
2019-04-13T07:52:02.378Z,10.30
2019-04-13T07:54:29.867Z,6.20
2019-04-13T07:56:56.672Z,8.13
2019-04-13T07:59:23.266Z,5.90
2019-04-13T08:01:56.683Z,8.17
2019-04-13T08:04:19.064Z,5.97
2019-04-13T08:06:45.943Z,5.93
2019-04-13T08:09:12.740Z,5.60
2019-04-13T08:11:39.316Z,5.90
2019-04-13T08:14:20.337Z,5.90
2019-04-13T08:17:15.403Z,13.70
2019-04-13T08:19:44.528Z,5.43
2019-04-13T08:22:12.185Z,7.23
2019-04-13T08:24:38.966Z,5.40
2019-04-13T08:27:07.871Z,5.07
2019-04-13T08:29:34.557Z,5.53
2019-04-13T08:32:02.529Z,5.67
2019-04-13T08:34:29.517Z,4.90
2019-04-13T08:36:58.010Z,5.57
2019-04-13T08:39:26.890Z,5.50
2019-04-13T08:41:53.672Z,4.60
2019-04-13T08:44:20.669Z,5.33
2019-04-13T08:46:47.643Z,9.17
2019-04-13T08:49:14.243Z,6.50
2019-04-13T08:51:40.984Z,6.73
2019-04-13T08:54:07.801Z,15.67
2019-04-13T08:56:34.374Z,7.47
2019-04-13T08:59:02.088Z,5.93
2019-04-13T09:01:29.705Z,8.27
2019-04-13T09:03:56.572Z,26.23
2019-04-13T09:06:23.452Z,27.33
2019-04-13T09:08:50.355Z,10.03
2019-04-13T09:11:19.983Z,17.30
2019-04-13T09:13:45.698Z,5.30
2019-04-13T09:16:12.809Z,6.63
2019-04-13T09:19:03.838Z,7.57
2019-04-13T09:21:32.042Z,5.17
2019-04-13T09:23:58.775Z,4.50
2019-04-13T09:26:25.356Z,16.17
2019-04-13T09:28:52.633Z,15.47
2019-04-13T09:31:19.270Z,4.80
2019-04-13T09:33:46.833Z,4.70
2019-04-13T09:36:14.144Z,4.80
2019-04-13T09:38:42.867Z,4.40
2019-04-13T09:41:10.071Z,4.53
2019-04-13T09:43:45.552Z,4.67
2019-04-13T09:46:12.298Z,5.00
2019-04-13T09:48:41.793Z,5.40
2019-04-13T09:51:08.795Z,6.37
2019-04-13T09:53:35.483Z,4.80
2019-04-13T09:56:02.689Z,4.77
2019-04-13T09:58:29.683Z,4.90
2019-04-13T10:00:56.539Z,5.10
2019-04-13T10:03:23.299Z,5.17
2019-04-13T10:05:50.165Z,4.63
2019-04-13T10:08:20.237Z,4.83
2019-04-13T10:10:46.777Z,5.80
2019-04-13T10:13:27.589Z,5.30
2019-04-13T10:16:12.490Z,5.37
2019-04-13T10:18:43.453Z,5.67
2019-04-13T10:21:13.139Z,6.50
2019-04-13T10:23:39.464Z,6.00
2019-04-13T10:26:06.776Z,7.87
2019-04-13T10:28:36.119Z,7.33
2019-04-13T10:31:02.360Z,5.53
2019-04-13T10:33:29.279Z,7.33
2019-04-13T10:35:56.395Z,6.60
2019-04-13T10:38:25.374Z,5.27
2019-04-13T10:40:52.614Z,6.30
2019-04-13T10:43:20.411Z,5.43
2019-04-13T10:46:12.329Z,5.80
2019-04-13T10:48:44.915Z,6.57
2019-04-13T10:51:26.395Z,5.90
2019-04-13T10:53:53.240Z,5.43
2019-04-13T10:56:20.744Z,5.60
2019-04-13T10:58:47.483Z,5.80
2019-04-13T11:01:14.878Z,5.63
2019-04-13T11:03:41.543Z,8.50
2019-04-13T11:06:08.898Z,12.17
2019-04-13T11:08:35.612Z,20.80
2019-04-13T11:11:02.354Z,22.47
2019-04-13T11:13:29.214Z,5.70
2019-04-13T11:15:56.283Z,17.10
2019-04-13T11:18:23.041Z,22.87
2019-04-13T11:20:49.856Z,22.57
2019-04-13T11:23:17.129Z,4.53
2019-04-13T11:25:44.103Z,5.37
2019-04-13T11:28:11.026Z,4.90
2019-04-13T11:30:38.097Z,5.03
2019-04-13T11:33:04.984Z,5.33
2019-04-13T11:35:35.466Z,5.53
2019-04-13T11:38:00.181Z,5.57
2019-04-13T11:40:26.849Z,4.87
2019-04-13T11:43:11.882Z,5.03
2019-04-13T11:45:58.594Z,5.60
2019-04-13T11:48:51.509Z,5.80
2019-04-13T11:51:22.912Z,5.60
2019-04-13T11:53:51.488Z,6.53
2019-04-13T11:56:18.699Z,5.40
2019-04-13T11:58:45.494Z,6.50
2019-04-13T12:01:41.345Z,5.53
2019-04-13T12:04:21.265Z,6.47
2019-04-13T12:07:13.697Z,7.47
2019-04-13T12:09:58.886Z,6.10
2019-04-13T12:12:50.967Z,6.60
2019-04-13T12:15:46.903Z,6.70
2019-04-13T12:18:36.202Z,7.10
2019-04-13T12:21:22.085Z,7.97
2019-04-13T12:23:50.867Z,6.80
2019-04-13T12:26:17.721Z,7.37
2019-04-13T12:28:44.817Z,5.93
2019-04-13T12:31:12.493Z,6.07
2019-04-13T12:33:46.372Z,7.27
2019-04-13T12:36:13.885Z,6.20
2019-04-13T12:38:49.693Z,7.23
2019-04-13T12:41:17.853Z,6.60
2019-04-13T12:43:44.476Z,6.30
2019-04-13T12:46:12.308Z,5.73
2019-04-13T12:48:39.144Z,6.53
2019-04-13T12:51:05.917Z,6.27
2019-04-13T12:53:32.624Z,6.07
2019-04-13T12:55:59.245Z,6.77
2019-04-13T12:58:26.336Z,5.90
2019-04-13T13:00:59.311Z,5.83
2019-04-13T13:03:27.278Z,8.23
2019-04-13T13:05:55.089Z,6.77
2019-04-13T13:08:23.133Z,6.27
2019-04-13T13:10:49.701Z,6.17
2019-04-13T13:13:22.532Z,7.00
2019-04-13T13:15:49.525Z,6.60
2019-04-13T13:18:16.531Z,7.87
2019-04-13T13:20:43.206Z,5.63
2019-04-13T13:23:12.410Z,5.80
2019-04-13T13:25:38.695Z,5.37
2019-04-13T13:28:05.465Z,5.33
2019-04-13T13:30:32.384Z,6.27
2019-04-13T13:32:59.252Z,5.43
2019-04-13T13:35:26.066Z,5.20
2019-04-13T13:37:53.647Z,5.97
2019-04-13T13:40:31.278Z,7.57
2019-04-13T13:42:49.782Z,7.17
2019-04-13T13:45:16.670Z,6.20
2019-04-13T13:47:43.442Z,5.23
2019-04-13T13:50:11.472Z,5.63
2019-04-13T13:52:38.738Z,6.73
2019-04-13T13:55:08.011Z,5.50
2019-04-13T13:57:40.928Z,5.87
2019-04-13T14:00:12.121Z,5.57
2019-04-13T14:02:38.735Z,6.27
2019-04-13T14:05:05.833Z,4.80
2019-04-13T14:07:33.400Z,4.77
2019-04-13T14:10:12.383Z,5.00
2019-04-13T14:12:41.929Z,4.30
2019-04-13T14:15:11.846Z,4.87
2019-04-13T14:17:39.409Z,4.60
2019-04-13T14:20:07.126Z,4.90
2019-04-13T14:22:33.961Z,3.67
2019-04-13T14:25:00.608Z,3.50
2019-04-13T14:27:27.470Z,3.90
2019-04-13T14:29:55.011Z,4.83
2019-04-13T14:32:21.625Z,4.77
2019-04-13T14:34:50.685Z,6.60
2019-04-13T14:37:17.432Z,8.00
2019-04-13T14:39:44.436Z,6.27
2019-04-13T14:42:12.790Z,5.27
2019-04-13T14:44:39.765Z,4.40
2019-04-13T14:47:06.911Z,5.17
2019-04-13T14:49:34.481Z,5.10
2019-04-13T14:52:02.211Z,3.63
2019-04-13T14:54:28.811Z,4.20
2019-04-13T14:56:57.995Z,10.20
2019-04-13T14:59:24.727Z,6.53
2019-04-13T15:01:51.595Z,4.00
2019-04-13T15:04:18.847Z,4.03
2019-04-13T15:06:46.207Z,3.77
2019-04-13T15:09:17.314Z,3.53
2019-04-13T15:11:42.912Z,4.03
2019-04-13T15:14:10.892Z,3.60
2019-04-13T15:16:39.952Z,3.57
2019-04-13T15:19:26.213Z,3.30
2019-04-13T15:21:43.865Z,3.90
2019-04-13T15:24:13.540Z,2.70
2019-04-13T15:26:44.149Z,3.17
2019-04-13T15:29:11.148Z,3.43
2019-04-13T15:31:39.890Z,3.07
2019-04-13T15:34:07.385Z,3.73
2019-04-13T15:36:35.600Z,4.23
2019-04-13T15:39:07.259Z,3.97
2019-04-13T15:41:46.016Z,6.23
2019-04-13T15:44:06.414Z,3.63
2019-04-13T15:46:33.331Z,4.07
2019-04-13T15:49:00.527Z,4.23
2019-04-13T15:51:28.245Z,3.33
2019-04-13T15:53:57.586Z,3.80
2019-04-13T15:56:24.639Z,3.33
2019-04-13T15:58:51.567Z,4.53
2019-04-13T16:01:19.572Z,3.57
2019-04-13T16:03:46.960Z,3.87
2019-04-13T16:06:19.291Z,3.77
2019-04-13T16:09:11.879Z,3.37
2019-04-13T16:11:48.365Z,3.70
2019-04-13T16:14:09.806Z,4.20
2019-04-13T16:16:37.274Z,4.60
2019-04-13T16:19:05.060Z,5.10
2019-04-13T16:21:32.504Z,5.10
2019-04-13T16:24:00.544Z,3.63
2019-04-13T16:26:27.980Z,3.60
2019-04-13T16:29:27.268Z,4.20
2019-04-13T16:32:31.842Z,5.23
2019-04-13T16:35:20.112Z,5.83
2019-04-13T16:37:48.509Z,7.37
2019-04-13T16:40:16.303Z,4.30
2019-04-13T16:42:43.759Z,6.60
2019-04-13T16:45:23.863Z,5.13
2019-04-13T16:47:57.999Z,4.77
2019-04-13T16:50:38.891Z,5.40
2019-04-13T16:53:35.213Z,4.30
2019-04-13T16:56:06.834Z,4.70
2019-04-13T16:58:40.496Z,6.27
2019-04-13T17:01:23.725Z,6.03
2019-04-13T17:04:13.011Z,6.50
2019-04-13T17:06:39.873Z,4.63
2019-04-13T17:09:06.524Z,5.57
2019-04-13T17:11:34.765Z,4.57
2019-04-13T17:14:01.838Z,6.67
2019-04-13T17:16:29.818Z,7.00
2019-04-13T17:19:15.637Z,6.00
2019-04-13T17:21:48.062Z,6.87
2019-04-13T17:24:36.836Z,5.00
2019-04-13T17:27:23.615Z,6.47
2019-04-13T17:29:58.718Z,5.37
2019-04-13T17:32:31.829Z,5.20
2019-04-13T17:35:03.760Z,7.57
2019-04-13T17:37:30.577Z,4.87
2019-04-13T17:39:57.449Z,7.40
2019-04-13T17:42:44.947Z,5.53
2019-04-13T17:45:37.923Z,6.40
2019-04-13T17:48:25.306Z,7.87
2019-04-13T17:51:18.694Z,8.60
2019-04-13T17:54:12.500Z,6.73
2019-04-13T17:56:40.650Z,7.13
2019-04-13T17:59:21.982Z,8.63
2019-04-13T18:02:13.328Z,5.60
2019-04-13T18:05:12.962Z,6.67
2019-04-13T18:07:59.419Z,7.77
2019-04-13T18:10:45.994Z,6.73
2019-04-13T18:13:45.117Z,5.57
2019-04-13T18:16:29.989Z,8.68
2019-04-13T18:19:05.659Z,8.10
2019-04-13T18:21:32.941Z,8.07
2019-04-13T18:24:01.448Z,8.20
2019-04-13T18:26:29.236Z,8.63
2019-04-13T18:28:56.658Z,7.90
2019-04-13T18:31:25.046Z,7.57
2019-04-13T18:33:53.347Z,9.33
2019-04-13T18:36:21.359Z,12.45
2019-04-13T18:38:48.309Z,8.13
2019-04-13T18:41:16.540Z,6.67
2019-04-13T18:43:43.778Z,6.80
2019-04-13T18:46:11.311Z,7.73
2019-04-13T18:48:38.130Z,7.20
2019-04-13T18:51:06.352Z,7.97
2019-04-13T18:53:33.627Z,7.13
2019-04-13T18:56:00.389Z,10.00
2019-04-13T18:58:29.447Z,6.30
2019-04-13T19:00:57.208Z,6.73
2019-04-13T19:03:24.270Z,8.03
2019-04-13T19:05:50.919Z,6.60
2019-04-13T19:08:17.907Z,7.10
2019-04-13T19:10:44.612Z,10.23
2019-04-13T19:13:11.543Z,8.93
2019-04-13T19:15:38.486Z,7.90
2019-04-13T19:18:05.287Z,7.23
2019-04-13T19:20:32.023Z,7.13
2019-04-13T19:22:59.111Z,7.63
2019-04-13T19:25:26.196Z,7.77
2019-04-13T19:27:52.851Z,6.57
2019-04-13T19:30:19.728Z,10.10
2019-04-13T19:32:46.474Z,10.03
2019-04-13T19:35:13.540Z,9.73
2019-04-13T19:37:41.118Z,8.23
2019-04-13T19:40:08.438Z,10.53
2019-04-13T19:42:35.715Z,8.27
2019-04-13T19:45:03.260Z,8.57
2019-04-13T19:47:31.215Z,8.37
2019-04-13T19:49:57.941Z,9.07
2019-04-13T19:52:30.597Z,7.93
2019-04-13T19:54:57.204Z,8.07
2019-04-13T19:57:24.003Z,8.23
2019-04-13T19:59:51.644Z,8.63
2019-04-13T20:02:20.552Z,8.33
2019-04-13T20:04:47.426Z,7.43
2019-04-13T20:07:14.535Z,9.77
2019-04-13T20:09:41.097Z,9.27
2019-04-13T20:12:08.763Z,11.07
2019-04-13T20:14:35.356Z,8.80
2019-04-13T20:17:02.118Z,8.37
2019-04-13T20:19:28.908Z,7.60
2019-04-13T20:21:55.760Z,8.47
2019-04-13T20:24:22.988Z,7.17
2019-04-13T20:26:51.219Z,9.17
2019-04-13T20:29:18.806Z,9.27
2019-04-13T20:31:46.329Z,10.87
2019-04-13T20:34:14.172Z,6.37
2019-04-13T20:36:42.469Z,8.87
2019-04-13T20:39:11.312Z,12.03
2019-04-13T20:41:48.934Z,6.83
2019-04-13T20:44:13.220Z,9.00
2019-04-13T20:46:38.897Z,9.23
2019-04-13T20:49:08.553Z,9.67
2019-04-13T20:51:36.684Z,8.37
2019-04-13T20:54:03.425Z,7.10
2019-04-13T20:56:30.336Z,8.60
2019-04-13T20:58:57.601Z,8.20
2019-04-13T21:01:24.241Z,8.67
2019-04-13T21:03:53.454Z,8.53
2019-04-13T21:06:21.832Z,8.87
2019-04-13T21:08:51.333Z,7.93
2019-04-13T21:11:17.357Z,9.07
2019-04-13T21:13:57.448Z,8.47
2019-04-13T21:16:14.887Z,9.67
2019-04-13T21:18:42.836Z,8.13
2019-04-13T21:21:10.678Z,6.97
2019-04-13T21:23:38.457Z,8.80
2019-04-13T21:26:06.279Z,8.47
2019-04-13T21:28:34.309Z,9.97
2019-04-13T21:31:02.150Z,8.70
2019-04-13T21:33:30.001Z,11.00
2019-04-13T21:35:57.767Z,8.77
2019-04-13T21:38:25.650Z,10.90
2019-04-13T21:40:53.596Z,7.27
2019-04-13T21:43:21.480Z,10.77
2019-04-13T21:45:49.270Z,7.53
2019-04-13T21:48:15.812Z,7.50
2019-04-13T21:50:57.103Z,9.10
2019-04-13T21:53:33.362Z,7.43
2019-04-13T21:55:59.992Z,10.40
2019-04-13T21:58:27.232Z,8.93
2019-04-13T22:01:30.011Z,9.60
2019-04-13T22:03:58.504Z,8.33
2019-04-13T22:06:25.680Z,8.30
2019-04-13T22:08:53.418Z,10.53
2019-04-13T22:11:21.203Z,8.13
2019-04-13T22:13:48.977Z,11.07
2019-04-13T22:16:16.902Z,8.80
2019-04-13T22:18:43.830Z,10.53
2019-04-13T22:21:11.161Z,9.20
2019-04-13T22:23:38.852Z,7.90
2019-04-13T22:26:06.784Z,10.60
2019-04-13T22:28:38.881Z,10.20
2019-04-13T22:31:31.110Z,9.27
2019-04-13T22:33:59.020Z,10.23
2019-04-13T22:36:29.248Z,9.80
2019-04-13T22:38:56.977Z,7.60
2019-04-13T22:41:24.513Z,9.53
2019-04-13T22:43:53.081Z,8.53
2019-04-13T22:46:19.895Z,9.07
2019-04-13T22:48:57.071Z,9.80
2019-04-13T22:51:36.279Z,8.70
2019-04-13T22:54:25.881Z,8.50
2019-04-13T22:57:19.479Z,10.10
2019-04-13T22:59:46.516Z,5.87
2019-04-13T23:02:34.230Z,7.10
2019-04-13T23:05:00.945Z,7.77
2019-04-13T23:07:28.294Z,5.70
2019-04-13T23:09:56.306Z,7.63
2019-04-13T23:12:22.924Z,7.70
2019-04-13T23:14:56.745Z,7.50
2019-04-13T23:17:18.093Z,6.93
2019-04-13T23:19:45.719Z,10.43
2019-04-13T23:22:12.548Z,8.50
2019-04-13T23:24:39.471Z,6.77
2019-04-13T23:27:07.252Z,6.67
2019-04-13T23:29:34.626Z,5.67
2019-04-13T23:32:01.586Z,7.37
2019-04-13T23:34:28.940Z,6.63
2019-04-13T23:36:55.733Z,8.73
2019-04-13T23:39:23.475Z,6.90
2019-04-13T23:41:51.841Z,6.87
2019-04-13T23:44:20.205Z,7.03
2019-04-13T23:46:48.275Z,6.27
2019-04-13T23:49:15.125Z,7.73
2019-04-13T23:51:42.522Z,5.90
2019-04-13T23:54:10.689Z,7.00
2019-04-13T23:56:56.361Z,9.47
2019-04-13T23:59:28.653Z,6.63
